Buoy 43528

sailwx.info

Track history (hours):
 
Tides and Currents Weather Stations Pressure Air Temp Water Temp Dewpoint Dewpoint Depression Visibility Wind Speed Wind Dir Waves Ship Positions

Drifting buoy 43528

Last reported at 2015-May-26 08:00 UTC. Time now 2015-May-26 09:40 UTC.
Position N 13°02' W 171°21'.

Water temperature 27.6 ° C

Date/timePositionNaut miles runAvg speedWind from/ knotsBaromVisibWave heightAir tempDewpointWater temp
2015-May-26 08:00N 13°02' W 171°21'5 1.3 27.6
2015-May-26 04:00N 13°03' W 171°15'7 0.6 27.7
2015-May-25 15:00N 13°01' W 171°08'0 0.0 27.5
2015-May-25 14:00N 13°01' W 171°08'1 1.2 27.5
2015-May-25 13:00N 13°01' W 171°07'2 0.5 27.5
2015-May-25 09:00N 12°60' W 171°05'1 0.6 27.5
2015-May-25 07:00N 12°59' W 171°04'2 1.0 27.6
2015-May-25 05:00N 12°59' W 171°02'3 2.5 27.6
2015-May-25 04:00N 12°58' W 170°60'3 0.5 27.7
2015-May-24 22:00N 12°57' W 170°57'3 0.9 27.6
2015-May-24 19:00N 12°56' W 170°55'2 1.0 27.5
2015-May-24 17:00N 12°55' W 170°53'0 0.0 27.5
2015-May-24 16:00N 12°55' W 170°53'10 1.2 27.5
2015-May-24 08:00N 12°54' W 170°43'2 0.4 27.5
2015-May-24 02:00N 12°54' W 170°41'0 0.0 27.6
2015-May-24 01:00N 12°54' W 170°41'3 0.8 27.6
2015-May-23 21:00N 12°54' W 170°37'3 1.3 27.5
2015-May-23 19:00N 12°54' W 170°34'0 0.2 27.5
2015-May-23 17:00N 12°54' W 170°34'2 0.5 27.5
2015-May-23 13:00N 12°54' W 170°32'0 0.0 27.4
2015-May-23 12:00N 12°54' W 170°32'6 0.7 27.4
2015-May-23 03:00N 12°55' W 170°26'1 0.6 27.7
2015-May-23 02:00N 12°55' W 170°25'1 0.7 27.7
2015-May-23 01:00N 12°55' W 170°24'1 0.8 27.7
2015-May-23 00:00N 12°55' W 170°24'4 0.5 27.7
2015-May-22 17:00N 12°55' W 170°20'2 0.6 27.4
2015-May-22 13:00N 12°57' W 170°18'4 1.0 27.5
2015-May-22 09:00N 12°57' W 170°14'1 0.3 27.5
2015-May-22 05:00N 12°58' W 170°14'0 0.1 27.6
2015-May-22 04:00N 12°58' W 170°14'2 2.2 27.6
2015-May-22 03:00N 12°59' W 170°12'5 0.4 27.6
2015-May-21 16:00N 13°00' W 170°07'6 0.8 27.4
2015-May-21 08:00N 13°03' W 170°01'0 0.0 27.4
2015-May-21 05:00N 13°03' W 170°01'7 0.6 27.4
2015-May-20 16:00N 13°07' W 169°55'7 0.6 27.3
2015-May-20 04:00N 13°10' W 169°49'3 0.4 27.4
2015-May-19 20:00N 13°10' W 169°46'5 0.4 27.4
2015-May-19 09:00N 13°10' W 169°41'1 1.2 27.3
2015-May-19 08:00N 13°11' W 169°40'2 0.5 27.4
2015-May-19 04:00N 13°10' W 169°38'1 1.2 27.4
2015-May-19 03:00N 13°09' W 169°37'0 0.0 27.4
2015-May-19 01:00N 13°09' W 169°37'2 2.1 27.4
2015-May-19 00:00N 13°10' W 169°35'1 0.3 27.4
2015-May-18 20:00N 13°10' W 169°34'1 0.4 27.3
2015-May-18 18:00N 13°10' W 169°33'1 0.7 27.3
2015-May-18 17:00N 13°10' W 169°32'2 1.6 27.3
2015-May-18 16:00N 13°10' W 169°31'3 0.5 27.3
2015-May-18 09:00N 13°10' W 169°27'2 1.7 27.3
2015-May-18 08:00N 13°11' W 169°26'0 0.0 27.3
2015-May-18 07:00N 13°11' W 169°26'2 0.6 27.3
2015-May-18 04:00N 13°12' W 169°24'4 1.2 27.3
2015-May-18 01:00N 13°13' W 169°21'0 0.0 27.2
2015-May-17 22:00N 13°13' W 169°21'1 1.2 27.1
2015-May-17 21:00N 13°14' W 169°20'4 0.6 27.1
2015-May-17 15:00N 13°16' W 169°17'1 0.5 27.0
2015-May-17 14:00N 13°17' W 169°17'5 0.5 27.0
2015-May-17 04:00N 13°20' W 169°13'4 1.2 27.1
2015-May-17 01:00N 13°21' W 169°09'1 0.2 27.0
2015-May-16 19:00N 13°21' W 169°09'0 0.1 27.0
2015-May-16 17:00N 13°21' W 169°08'0 0.3 27.0
2015-May-16 16:00N 13°21' W 169°08'2 0.8 27.0
2015-May-16 14:00N 13°21' W 169°06'1 1.1 27.0
2015-May-16 13:00N 13°22' W 169°05'4 0.7 27.0
2015-May-16 08:00N 13°24' W 169°02'   27.0
Track history (hours):
 
Tides and Currents Weather Stations Pressure Air Temp Water Temp Dewpoint Dewpoint Depression Visibility Wind Speed Wind Dir Waves Ship Positions

Drifting buoy 43528

Last reported at 2015-May-26 08:00 UTC. Time now 2015-May-26 09:40 UTC.
Position N 13°02' W 171°21'.

Water temperature 27.6 ° C

Date/timePositionNaut miles runAvg speedWind from/ knotsBaromVisibWave heightAir tempDewpointWater temp
2015-May-26 08:00N 13°02' W 171°21'5 1.3 27.6
2015-May-26 04:00N 13°03' W 171°15'7 0.6 27.7
2015-May-25 15:00N 13°01' W 171°08'0 0.0 27.5
2015-May-25 14:00N 13°01' W 171°08'1 1.2 27.5
2015-May-25 13:00N 13°01' W 171°07'2 0.5 27.5
2015-May-25 09:00N 12°60' W 171°05'1 0.6 27.5
2015-May-25 07:00N 12°59' W 171°04'2 1.0 27.6
2015-May-25 05:00N 12°59' W 171°02'3 2.5 27.6
2015-May-25 04:00N 12°58' W 170°60'3 0.5 27.7
2015-May-24 22:00N 12°57' W 170°57'3 0.9 27.6
2015-May-24 19:00N 12°56' W 170°55'2 1.0 27.5
2015-May-24 17:00N 12°55' W 170°53'0 0.0 27.5
2015-May-24 16:00N 12°55' W 170°53'10 1.2 27.5
2015-May-24 08:00N 12°54' W 170°43'2 0.4 27.5
2015-May-24 02:00N 12°54' W 170°41'0 0.0 27.6
2015-May-24 01:00N 12°54' W 170°41'3 0.8 27.6
2015-May-23 21:00N 12°54' W 170°37'3 1.3 27.5
2015-May-23 19:00N 12°54' W 170°34'0 0.2 27.5
2015-May-23 17:00N 12°54' W 170°34'2 0.5 27.5
2015-May-23 13:00N 12°54' W 170°32'0 0.0 27.4
2015-May-23 12:00N 12°54' W 170°32'6 0.7 27.4
2015-May-23 03:00N 12°55' W 170°26'1 0.6 27.7
2015-May-23 02:00N 12°55' W 170°25'1 0.7 27.7
2015-May-23 01:00N 12°55' W 170°24'1 0.8 27.7
2015-May-23 00:00N 12°55' W 170°24'4 0.5 27.7
2015-May-22 17:00N 12°55' W 170°20'2 0.6 27.4
2015-May-22 13:00N 12°57' W 170°18'4 1.0 27.5
2015-May-22 09:00N 12°57' W 170°14'1 0.3 27.5
2015-May-22 05:00N 12°58' W 170°14'0 0.1 27.6
2015-May-22 04:00N 12°58' W 170°14'2 2.2 27.6
2015-May-22 03:00N 12°59' W 170°12'5 0.4 27.6
2015-May-21 16:00N 13°00' W 170°07'6 0.8 27.4
2015-May-21 08:00N 13°03' W 170°01'0 0.0 27.4
2015-May-21 05:00N 13°03' W 170°01'7 0.6 27.4
2015-May-20 16:00N 13°07' W 169°55'7 0.6 27.3
2015-May-20 04:00N 13°10' W 169°49'3 0.4 27.4
2015-May-19 20:00N 13°10' W 169°46'5 0.4 27.4
2015-May-19 09:00N 13°10' W 169°41'1 1.2 27.3
2015-May-19 08:00N 13°11' W 169°40'2 0.5 27.4
2015-May-19 04:00N 13°10' W 169°38'1 1.2 27.4
2015-May-19 03:00N 13°09' W 169°37'0 0.0 27.4
2015-May-19 01:00N 13°09' W 169°37'2 2.1 27.4
2015-May-19 00:00N 13°10' W 169°35'1 0.3 27.4
2015-May-18 20:00N 13°10' W 169°34'1 0.4 27.3
2015-May-18 18:00N 13°10' W 169°33'1 0.7 27.3
2015-May-18 17:00N 13°10' W 169°32'2 1.6 27.3
2015-May-18 16:00N 13°10' W 169°31'3 0.5 27.3
2015-May-18 09:00N 13°10' W 169°27'2 1.7 27.3
2015-May-18 08:00N 13°11' W 169°26'0 0.0 27.3
2015-May-18 07:00N 13°11' W 169°26'2 0.6 27.3
2015-May-18 04:00N 13°12' W 169°24'4 1.2 27.3
2015-May-18 01:00N 13°13' W 169°21'0 0.0 27.2
2015-May-17 22:00N 13°13' W 169°21'1 1.2 27.1
2015-May-17 21:00N 13°14' W 169°20'4 0.6 27.1
2015-May-17 15:00N 13°16' W 169°17'1 0.5 27.0
2015-May-17 14:00N 13°17' W 169°17'5 0.5 27.0
2015-May-17 04:00N 13°20' W 169°13'4 1.2 27.1
2015-May-17 01:00N 13°21' W 169°09'1 0.2 27.0
2015-May-16 19:00N 13°21' W 169°09'0 0.1 27.0
2015-May-16 17:00N 13°21' W 169°08'0 0.3 27.0
2015-May-16 16:00N 13°21' W 169°08'2 0.8 27.0
2015-May-16 14:00N 13°21' W 169°06'1 1.1 27.0
2015-May-16 13:00N 13°22' W 169°05'4 0.7 27.0
2015-May-16 08:00N 13°24' W 169°02'   27.0

Dump ship's entire track history